createdAt,value
2018-04-27T00:02:07.028Z,79.90
2018-04-27T00:04:34.481Z,80.70
2018-04-27T00:07:01.938Z,79.70
2018-04-27T00:09:29.488Z,80.30
2018-04-27T00:12:00.003Z,80.70
2018-04-27T00:14:27.469Z,80.90
2018-04-27T00:16:54.939Z,81.50
2018-04-27T00:19:22.401Z,81.70
2018-04-27T00:21:49.873Z,81.30
2018-04-27T00:24:18.096Z,81.20
2018-04-27T00:26:45.646Z,81.20
2018-04-27T00:29:13.140Z,80.20
2018-04-27T00:31:40.700Z,80.40
2018-04-27T00:34:08.263Z,79.80
2018-04-27T00:36:35.716Z,79.60
2018-04-27T00:39:03.284Z,79.50
2018-04-27T00:41:31.562Z,80.00
2018-04-27T00:43:59.020Z,80.00
2018-04-27T00:46:26.491Z,80.60
2018-04-27T00:48:54.041Z,80.60
2018-04-27T00:51:21.508Z,80.40
2018-04-27T00:53:49.061Z,80.50
2018-04-27T00:56:16.530Z,81.10
2018-04-27T00:58:43.984Z,80.70
2018-04-27T01:01:11.450Z,81.20
2018-04-27T01:03:39.689Z,82.10
2018-04-27T01:06:07.164Z,82.00
2018-04-27T01:08:34.627Z,82.00
2018-04-27T01:11:02.080Z,81.20
2018-04-27T01:13:29.541Z,81.20
2018-04-27T01:15:57.002Z,80.70
2018-04-27T01:18:25.229Z,80.70
2018-04-27T01:20:52.727Z,80.60
2018-04-27T01:23:20.196Z,79.30
2018-04-27T01:25:47.654Z,79.40
2018-04-27T01:28:15.929Z,79.80
2018-04-27T01:30:43.489Z,79.70
2018-04-27T01:33:10.944Z,80.10
2018-04-27T01:35:39.222Z,80.00
2018-04-27T01:38:06.776Z,80.00
2018-04-27T01:40:35.064Z,80.60
2018-04-27T01:43:02.569Z,80.50
2018-04-27T01:45:30.073Z,79.30
2018-04-27T01:47:57.636Z,79.10
2018-04-27T01:50:25.193Z,79.30
2018-04-27T01:52:52.824Z,79.40
2018-04-27T01:55:21.215Z,80.00
2018-04-27T01:57:48.674Z,79.90
2018-04-27T02:00:16.133Z,79.70
2018-04-27T02:02:43.615Z,80.10
2018-04-27T02:05:11.832Z,81.00
2018-04-27T02:07:39.348Z,80.70
2018-04-27T02:10:07.577Z,81.00
2018-04-27T02:12:35.037Z,80.90
2018-04-27T02:15:02.548Z,80.90
2018-04-27T02:17:30.005Z,80.50
2018-04-27T02:19:57.554Z,81.20
2018-04-27T02:22:25.121Z,80.90
2018-04-27T02:24:53.413Z,80.20
2018-04-27T02:27:20.869Z,80.20
2018-04-27T02:29:48.329Z,80.40
2018-04-27T02:32:15.872Z,80.90
2018-04-27T02:34:43.332Z,80.70
2018-04-27T02:37:11.612Z,80.60
2018-04-27T02:39:39.170Z,80.60
2018-04-27T02:42:07.445Z,80.80
2018-04-27T02:44:35.015Z,80.80
2018-04-27T02:47:02.570Z,81.10
2018-04-27T02:49:30.801Z,81.70
2018-04-27T02:51:58.305Z,81.60
2018-04-27T02:54:25.788Z,80.90
2018-04-27T02:56:54.043Z,80.70
2018-04-27T02:59:21.513Z,80.70
2018-04-27T03:01:49.061Z,80.70
2018-04-27T03:04:16.616Z,80.60
2018-04-27T03:06:44.841Z,81.20
2018-04-27T03:09:12.361Z,81.30
2018-04-27T03:11:39.825Z,81.30
2018-04-27T03:14:07.281Z,80.80
2018-04-27T03:16:34.740Z,80.70
2018-04-27T03:19:02.192Z,81.60
2018-04-27T03:21:29.649Z,80.60
2018-04-27T03:23:57.217Z,81.10
2018-04-27T03:26:24.660Z,81.30
2018-04-27T03:28:52.885Z,82.20
2018-04-27T03:31:20.397Z,82.20
2018-04-27T03:33:47.962Z,81.90
2018-04-27T03:36:15.412Z,81.90
2018-04-27T03:38:43.692Z,80.20
2018-04-27T03:41:11.969Z,79.80
2018-04-27T03:43:39.529Z,79.80
2018-04-27T03:46:07.809Z,80.50
2018-04-27T03:48:35.369Z,80.50
2018-04-27T03:51:03.600Z,81.10
2018-04-27T03:53:31.101Z,81.00
2018-04-27T03:55:59.324Z,82.10
2018-04-27T03:58:26.780Z,82.10
2018-04-27T04:01:06.136Z,81.80
2018-04-27T04:03:45.516Z,81.40
2018-04-27T04:06:12.984Z,80.80
2018-04-27T04:08:41.244Z,80.40
2018-04-27T04:11:09.521Z,80.50
2018-04-27T04:13:37.089Z,80.50
2018-04-27T04:16:04.554Z,80.10
2018-04-27T04:18:32.008Z,80.40
2018-04-27T04:20:59.473Z,80.90
2018-04-27T04:23:26.925Z,81.70
2018-04-27T04:25:55.152Z,81.40
2018-04-27T04:28:22.610Z,81.40
2018-04-27T04:30:50.106Z,81.60
2018-04-27T04:33:18.385Z,81.50
2018-04-27T04:35:46.607Z,81.60
2018-04-27T04:38:14.150Z,81.40
2018-04-27T04:40:42.341Z,80.70
2018-04-27T04:43:09.853Z,80.70
2018-04-27T04:45:37.321Z,80.90
2018-04-27T04:48:04.853Z,80.70
2018-04-27T04:50:32.337Z,80.80
2018-04-27T04:52:59.792Z,81.70
2018-04-27T04:55:27.257Z,81.30
2018-04-27T04:57:54.804Z,80.90
2018-04-27T05:00:23.044Z,80.40
2018-04-27T05:02:50.564Z,80.40
2018-04-27T05:05:18.000Z,80.10
2018-04-27T05:07:46.276Z,79.70
2018-04-27T05:10:13.735Z,79.60
2018-04-27T05:12:41.292Z,79.40
2018-04-27T05:15:09.569Z,79.60
2018-04-27T05:17:37.028Z,78.90
2018-04-27T05:20:04.001Z,77.80
2018-04-27T05:22:33.164Z,75.90
2018-04-27T05:25:00.740Z,75.70
2018-04-27T05:27:28.192Z,74.70
2018-04-27T05:29:55.753Z,73.60
2018-04-27T05:32:23.216Z,72.80
2018-04-27T05:34:50.680Z,72.70
2018-04-27T05:37:18.233Z,71.90
2018-04-27T05:39:45.798Z,71.80
2018-04-27T05:42:13.252Z,71.90
2018-04-27T05:44:40.804Z,71.80
2018-04-27T05:47:08.364Z,71.50
2018-04-27T05:49:35.828Z,70.90
2018-04-27T05:52:03.286Z,71.00
2018-04-27T05:54:30.745Z,71.00
2018-04-27T05:56:58.300Z,70.00
2018-04-27T05:59:25.866Z,69.90
2018-04-27T06:01:53.430Z,70.50
2018-04-27T06:04:20.981Z,69.80
2018-04-27T06:06:48.541Z,69.80
2018-04-27T06:09:15.996Z,69.30
2018-04-27T06:11:43.451Z,69.20
2018-04-27T06:14:10.926Z,67.20
2018-04-27T06:16:38.389Z,67.00
2018-04-27T06:19:05.848Z,66.40
2018-04-27T06:21:33.381Z,66.90
2018-04-27T06:24:00.848Z,67.00
2018-04-27T06:26:28.306Z,65.80
2018-04-27T06:28:55.765Z,66.20
2018-04-27T06:31:23.324Z,66.80
2018-04-27T06:33:50.893Z,65.70
2018-04-27T06:36:18.365Z,65.50
2018-04-27T06:38:45.904Z,64.60
2018-04-27T06:41:13.471Z,64.10
2018-04-27T06:43:41.698Z,63.60
2018-04-27T06:46:09.204Z,63.60
2018-04-27T06:48:36.665Z,63.50
2018-04-27T06:51:04.137Z,63.90
2018-04-27T06:53:31.676Z,63.30
2018-04-27T06:55:59.133Z,62.70
2018-04-27T06:58:26.693Z,61.80
2018-04-27T07:00:54.261Z,61.00
2018-04-27T07:03:21.716Z,61.00
2018-04-27T07:05:49.171Z,60.50
2018-04-27T07:08:16.637Z,60.50
2018-04-27T07:10:44.193Z,60.80
2018-04-27T07:13:11.656Z,59.90
2018-04-27T07:15:39.212Z,61.00
2018-04-27T07:18:06.681Z,59.50
2018-04-27T07:20:34.133Z,59.80
2018-04-27T07:23:01.691Z,58.30
2018-04-27T07:25:29.161Z,56.70
2018-04-27T07:27:56.702Z,56.30
2018-04-27T07:30:24.268Z,56.00
2018-04-27T07:32:51.725Z,56.20
2018-04-27T07:35:19.181Z,55.40
2018-04-27T07:37:46.637Z,54.70
2018-04-27T07:40:14.097Z,54.50
2018-04-27T07:42:41.658Z,56.30
2018-04-27T07:45:09.230Z,54.10
2018-04-27T07:47:36.780Z,53.90
2018-04-27T07:50:04.237Z,53.70
2018-04-27T07:52:31.692Z,53.80
2018-04-27T07:54:59.257Z,54.90
2018-04-27T07:57:26.717Z,53.30
2018-04-27T07:59:54.171Z,52.60
2018-04-27T08:02:21.791Z,52.60
2018-04-27T08:04:49.188Z,52.30
2018-04-27T08:07:16.663Z,53.00
2018-04-27T08:09:44.105Z,53.90
2018-04-27T08:12:12.376Z,52.60
2018-04-27T08:14:39.833Z,52.50
2018-04-27T08:17:07.400Z,51.80
2018-04-27T08:19:34.964Z,51.80
2018-04-27T08:22:02.528Z,51.80
2018-04-27T08:24:30.138Z,50.90
2018-04-27T08:26:57.645Z,50.40
2018-04-27T08:29:25.914Z,50.10
2018-04-27T08:31:53.476Z,50.10
2018-04-27T08:34:21.037Z,49.90
2018-04-27T08:36:48.501Z,48.80
2018-04-27T08:39:16.057Z,48.70
2018-04-27T08:41:43.518Z,48.70
2018-04-27T08:44:11.085Z,49.40
2018-04-27T08:46:38.634Z,48.30
2018-04-27T08:49:06.093Z,49.00
2018-04-27T08:51:33.653Z,48.60
2018-04-27T08:54:01.108Z,49.70
2018-04-27T08:56:28.568Z,47.50
2018-04-27T08:58:56.042Z,47.60
2018-04-27T09:01:23.592Z,45.40
2018-04-27T09:03:51.060Z,46.60
2018-04-27T09:06:18.559Z,47.10
2018-04-27T09:08:46.751Z,46.40
2018-04-27T09:11:14.239Z,46.20
2018-04-27T09:13:41.697Z,42.40
2018-04-27T09:16:09.257Z,44.30
2018-04-27T09:18:36.816Z,43.90
2018-04-27T09:21:04.277Z,43.70
2018-04-27T09:23:31.901Z,44.90
2018-04-27T09:25:59.348Z,44.70
2018-04-27T09:28:26.918Z,45.50
2018-04-27T09:30:54.413Z,44.80
2018-04-27T09:33:21.876Z,44.60
2018-04-27T09:35:49.341Z,44.50
2018-04-27T09:38:16.892Z,44.10
2018-04-27T09:40:45.169Z,43.30
2018-04-27T09:43:12.728Z,43.40
2018-04-27T09:45:40.254Z,44.70
2018-04-27T09:48:07.656Z,45.10
2018-04-27T09:50:35.205Z,44.20
2018-04-27T09:53:02.664Z,44.70
2018-04-27T09:55:30.220Z,44.60
2018-04-27T09:57:57.678Z,44.10
2018-04-27T10:00:25.245Z,43.00
2018-04-27T10:02:52.705Z,41.90
2018-04-27T10:05:20.321Z,41.60
2018-04-27T10:07:47.768Z,41.20
2018-04-27T10:10:15.279Z,41.90
2018-04-27T10:12:42.737Z,41.50
2018-04-27T10:15:10.292Z,41.90
2018-04-27T10:17:37.852Z,41.50
2018-04-27T10:20:05.417Z,41.70
2018-04-27T10:22:32.876Z,41.90
2018-04-27T10:25:00.404Z,41.30
2018-04-27T10:27:27.888Z,39.80
2018-04-27T10:29:55.452Z,41.00
2018-04-27T10:32:23.012Z,40.60
2018-04-27T10:34:50.468Z,41.20
2018-04-27T10:37:18.029Z,42.70
2018-04-27T10:39:45.593Z,42.20
2018-04-27T10:42:13.151Z,41.50
2018-04-27T10:44:40.712Z,42.40
2018-04-27T10:47:08.269Z,41.60
2018-04-27T10:49:35.834Z,41.50
2018-04-27T10:52:03.400Z,41.70
2018-04-27T10:54:30.865Z,40.70
2018-04-27T10:56:59.092Z,40.90
2018-04-27T10:59:26.584Z,40.80
2018-04-27T11:01:54.049Z,40.10
2018-04-27T11:04:21.544Z,40.20
2018-04-27T11:06:49.760Z,39.60
2018-04-27T11:09:17.242Z,39.50
2018-04-27T11:11:44.718Z,39.60
2018-04-27T11:14:12.165Z,39.40
2018-04-27T11:16:39.628Z,39.30
2018-04-27T11:19:07.172Z,40.20
2018-04-27T11:21:34.628Z,37.90
2018-04-27T11:24:02.193Z,38.10
2018-04-27T11:26:29.753Z,38.50
2018-04-27T11:28:57.309Z,38.40
2018-04-27T11:31:24.872Z,38.20
2018-04-27T11:33:52.332Z,39.40
2018-04-27T11:36:19.801Z,38.90
2018-04-27T11:38:47.261Z,39.10
2018-04-27T11:41:14.731Z,39.10
2018-04-27T11:43:42.269Z,40.20
2018-04-27T11:46:09.724Z,39.50
2018-04-27T11:48:37.184Z,38.90
2018-04-27T11:51:04.645Z,38.60
2018-04-27T11:53:32.196Z,38.90
2018-04-27T11:55:59.661Z,38.90
2018-04-27T11:58:27.229Z,39.00
2018-04-27T12:00:55.461Z,39.10
2018-04-27T12:03:22.953Z,39.10
2018-04-27T12:05:50.404Z,39.70
2018-04-27T12:08:17.865Z,39.30
2018-04-27T12:10:45.514Z,40.00
2018-04-27T12:13:12.888Z,38.50
2018-04-27T12:15:41.228Z,38.90
2018-04-27T12:18:08.685Z,38.90
2018-04-27T12:20:36.146Z,40.80
2018-04-27T12:23:03.600Z,39.10
2018-04-27T12:25:31.072Z,40.00
2018-04-27T12:27:58.553Z,39.60
2018-04-27T12:30:26.013Z,40.80
2018-04-27T12:32:53.582Z,40.40
2018-04-27T12:35:21.809Z,41.40
2018-04-27T12:37:49.316Z,40.90
2018-04-27T12:40:16.869Z,40.10
2018-04-27T12:42:44.428Z,40.50
2018-04-27T12:45:12.005Z,41.60
2018-04-27T12:47:39.520Z,40.10
2018-04-27T12:50:06.976Z,40.40
2018-04-27T12:52:34.465Z,39.90
2018-04-27T12:55:02.030Z,39.50
2018-04-27T12:57:29.485Z,39.80
2018-04-27T12:59:57.002Z,40.00
2018-04-27T13:02:24.500Z,40.60
2018-04-27T13:04:51.960Z,41.50
2018-04-27T13:07:19.525Z,41.80
2018-04-27T13:09:47.082Z,39.90
2018-04-27T13:12:14.540Z,40.50
2018-04-27T13:14:42.107Z,39.40
2018-04-27T13:17:09.560Z,40.40
2018-04-27T13:19:37.116Z,40.50
2018-04-27T13:22:04.677Z,40.70
2018-04-27T13:24:32.141Z,39.90
2018-04-27T13:26:59.696Z,39.10
2018-04-27T13:29:27.256Z,39.50
2018-04-27T13:31:54.821Z,39.80
2018-04-27T13:34:22.449Z,40.60
2018-04-27T13:36:49.941Z,40.10
2018-04-27T13:39:17.400Z,40.30
2018-04-27T13:41:44.858Z,40.80
2018-04-27T13:44:12.417Z,40.60
2018-04-27T13:46:39.972Z,40.60
2018-04-27T13:49:07.540Z,40.10
2018-04-27T13:51:35.005Z,40.70
2018-04-27T13:54:02.559Z,40.70
2018-04-27T13:56:30.122Z,40.60
2018-04-27T13:58:57.585Z,41.60
2018-04-27T14:01:25.045Z,40.60
2018-04-27T14:03:52.501Z,39.90
2018-04-27T14:06:19.957Z,40.40
2018-04-27T14:08:47.412Z,41.30
2018-04-27T14:11:15.699Z,40.40
2018-04-27T14:13:43.110Z,40.40
2018-04-27T14:16:10.596Z,40.70
2018-04-27T14:18:38.166Z,40.90
2018-04-27T14:21:05.625Z,39.50
2018-04-27T14:23:33.850Z,39.90
2018-04-27T14:26:01.358Z,39.90
2018-04-27T14:28:28.913Z,40.00
2018-04-27T14:30:56.375Z,40.20
2018-04-27T14:33:23.845Z,39.70
2018-04-27T14:35:51.450Z,40.10
2018-04-27T14:38:18.901Z,41.60
2018-04-27T14:40:46.358Z,41.20
2018-04-27T14:43:13.818Z,40.40
2018-04-27T14:45:41.268Z,40.60
2018-04-27T14:48:08.734Z,40.90
2018-04-27T14:50:36.240Z,41.10
2018-04-27T14:53:03.692Z,41.70
2018-04-27T14:55:31.265Z,40.70
2018-04-27T14:57:58.728Z,40.70
2018-04-27T15:00:26.278Z,41.00
2018-04-27T15:02:53.732Z,40.80
2018-04-27T15:05:21.364Z,41.10
2018-04-27T15:07:49.530Z,41.10
2018-04-27T15:10:16.989Z,41.20
2018-04-27T15:12:44.485Z,41.10
2018-04-27T15:15:11.948Z,41.50
2018-04-27T15:17:39.404Z,41.00
2018-04-27T15:20:06.923Z,41.50
2018-04-27T15:22:34.381Z,42.00
2018-04-27T15:25:01.837Z,41.80
2018-04-27T15:27:29.335Z,42.10
2018-04-27T15:29:56.796Z,42.60
2018-04-27T15:32:24.357Z,41.70
2018-04-27T15:34:51.916Z,42.80
2018-04-27T15:37:19.481Z,41.90
2018-04-27T15:39:46.941Z,42.50
2018-04-27T15:42:14.397Z,42.20
2018-04-27T15:44:41.857Z,42.20
2018-04-27T15:47:09.318Z,42.80
2018-04-27T15:49:36.868Z,41.90
2018-04-27T15:52:04.451Z,42.10
2018-04-27T15:54:31.990Z,42.30
2018-04-27T15:56:59.454Z,42.70
2018-04-27T15:59:27.733Z,42.30
2018-04-27T16:01:55.192Z,42.40
2018-04-27T16:04:22.658Z,42.60
2018-04-27T16:06:50.197Z,42.40
2018-04-27T16:09:17.790Z,41.70
2018-04-27T16:11:45.228Z,42.50
2018-04-27T16:14:12.681Z,42.60
2018-04-27T16:16:40.245Z,42.50
2018-04-27T16:19:07.705Z,42.30
2018-04-27T16:21:35.278Z,43.20
2018-04-27T16:24:03.740Z,42.80
2018-04-27T16:26:31.204Z,43.20
2018-04-27T16:28:58.810Z,42.90
2018-04-27T16:31:26.316Z,42.90
2018-04-27T16:33:54.544Z,42.30
2018-04-27T16:36:22.060Z,42.30
2018-04-27T16:38:49.528Z,41.80
2018-04-27T16:41:17.091Z,41.80
2018-04-27T16:43:44.543Z,42.50
2018-04-27T16:46:12.017Z,43.10
2018-04-27T16:48:40.269Z,43.20
2018-04-27T16:51:07.736Z,43.10
2018-04-27T16:53:35.287Z,43.60
2018-04-27T16:56:02.839Z,43.50
2018-04-27T16:58:30.300Z,43.20
2018-04-27T17:00:57.763Z,42.10
2018-04-27T17:03:25.234Z,42.60
2018-04-27T17:05:52.699Z,43.00
2018-04-27T17:08:20.920Z,43.40
2018-04-27T17:10:48.412Z,43.40
2018-04-27T17:13:15.876Z,44.30
2018-04-27T17:15:43.333Z,44.10
2018-04-27T17:18:10.792Z,44.30
2018-04-27T17:20:38.304Z,45.10
2018-04-27T17:23:05.769Z,45.10
2018-04-27T17:25:33.224Z,45.30
2018-04-27T17:28:00.720Z,45.40
2018-04-27T17:30:28.176Z,45.80
2018-04-27T17:32:55.745Z,46.30
2018-04-27T17:35:24.042Z,46.50
2018-04-27T17:37:51.640Z,46.50
2018-04-27T17:40:19.178Z,47.00
2018-04-27T17:42:46.556Z,46.50
2018-04-27T17:45:14.055Z,46.40
2018-04-27T17:47:41.524Z,46.60
2018-04-27T17:50:09.081Z,47.20
2018-04-27T17:52:36.633Z,47.90
2018-04-27T17:55:04.089Z,48.10
2018-04-27T17:57:31.548Z,48.50
2018-04-27T17:59:59.011Z,49.00
2018-04-27T18:02:26.481Z,49.70
2018-04-27T18:04:54.716Z,50.80
2018-04-27T18:07:22.181Z,50.90
2018-04-27T18:09:49.655Z,51.00
2018-04-27T18:12:17.204Z,51.30
2018-04-27T18:14:44.785Z,51.80
2018-04-27T18:17:13.012Z,52.50
2018-04-27T18:19:40.517Z,52.50
2018-04-27T18:22:08.081Z,53.30
2018-04-27T18:24:35.542Z,53.40
2018-04-27T18:27:03.101Z,53.70
2018-04-27T18:29:30.658Z,54.20
2018-04-27T18:31:58.120Z,54.80
2018-04-27T18:34:25.681Z,55.20
2018-04-27T18:36:53.170Z,55.80
2018-04-27T18:39:20.696Z,55.80
2018-04-27T18:41:48.170Z,56.10
2018-04-27T18:44:16.409Z,56.50
2018-04-27T18:46:43.945Z,56.50
2018-04-27T18:49:11.417Z,56.70
2018-04-27T18:51:38.896Z,57.10
2018-04-27T18:54:06.469Z,57.60
2018-04-27T18:56:33.929Z,57.40
2018-04-27T18:59:01.486Z,57.40
2018-04-27T19:01:29.757Z,58.10
2018-04-27T19:03:57.220Z,58.00
2018-04-27T19:06:25.495Z,58.10
2018-04-27T19:08:53.112Z,58.60
2018-04-27T19:11:20.517Z,58.00
2018-04-27T19:13:47.977Z,58.20
2018-04-27T19:16:15.529Z,58.80
2018-04-27T19:18:43.909Z,59.10
2018-04-27T19:21:12.392Z,59.50
2018-04-27T19:23:39.855Z,59.70
2018-04-27T19:26:08.009Z,60.00
2018-04-27T19:28:35.580Z,60.20
2018-04-27T19:31:03.965Z,60.50
2018-04-27T19:33:32.349Z,60.60
2018-04-27T19:36:00.586Z,61.10
2018-04-27T19:38:28.048Z,61.00
2018-04-27T19:40:55.512Z,61.50
2018-04-27T19:43:22.995Z,62.00
2018-04-27T19:45:50.456Z,62.20
2018-04-27T19:48:18.017Z,62.60
2018-04-27T19:50:45.571Z,62.90
2018-04-27T19:53:13.040Z,63.20
2018-04-27T19:55:40.499Z,63.50
2018-04-27T19:58:07.968Z,63.80
2018-04-27T20:00:37.149Z,64.40
2018-04-27T20:03:05.377Z,65.00
2018-04-27T20:05:35.669Z,65.00
2018-04-27T20:08:09.797Z,65.20
2018-04-27T20:10:39.595Z,65.00
2018-04-27T20:13:07.049Z,65.00
2018-04-27T20:15:46.114Z,65.40
2018-04-27T20:18:16.062Z,64.90
2018-04-27T20:20:44.480Z,65.30
2018-04-27T20:23:13.398Z,65.80
2018-04-27T20:25:42.788Z,65.80
2018-04-27T20:28:11.029Z,66.60
2018-04-27T20:30:41.216Z,66.60
2018-04-27T20:33:09.369Z,66.80
2018-04-27T20:35:36.868Z,66.90
2018-04-27T20:38:07.036Z,66.90
2018-04-27T20:40:35.265Z,67.40
2018-04-27T20:43:05.507Z,67.40
2018-04-27T20:45:33.066Z,67.50
2018-04-27T20:48:00.531Z,67.50
2018-04-27T20:50:27.989Z,67.30
2018-04-27T20:52:58.309Z,67.50
2018-04-27T20:55:25.772Z,67.60
2018-04-27T20:57:54.025Z,67.60
2018-04-27T21:00:24.472Z,67.90
2018-04-27T21:02:51.928Z,67.80
2018-04-27T21:05:20.288Z,67.70
2018-04-27T21:07:47.760Z,67.90
2018-04-27T21:10:15.224Z,68.00
2018-04-27T21:12:42.777Z,68.20
2018-04-27T21:15:12.821Z,68.30
2018-04-27T21:17:44.764Z,68.80
2018-04-27T21:20:12.237Z,68.60
2018-04-27T21:22:39.700Z,68.80
2018-04-27T21:25:07.952Z,69.40
2018-04-27T21:27:37.365Z,69.40
2018-04-27T21:30:04.931Z,69.60
2018-04-27T21:32:32.508Z,69.90
2018-04-27T21:35:00.766Z,71.00
2018-04-27T21:37:28.321Z,70.50
2018-04-27T21:39:55.878Z,70.60
2018-04-27T21:42:31.542Z,70.80
2018-04-27T21:44:58.996Z,70.90
2018-04-27T21:47:31.873Z,71.00
2018-04-27T21:50:00.737Z,71.50
2018-04-27T21:52:32.825Z,71.50
2018-04-27T21:55:00.288Z,71.60
2018-04-27T21:57:33.273Z,71.90
2018-04-27T22:00:14.518Z,71.90
2018-04-27T22:02:51.769Z,71.90
2018-04-27T22:08:42.184Z,72.00
2018-04-27T22:11:11.214Z,72.30
2018-04-27T22:13:38.723Z,72.30
2018-04-27T22:16:14.777Z,72.20
2018-04-27T22:18:42.333Z,72.30
2018-04-27T22:21:09.896Z,72.10
2018-04-27T22:23:38.975Z,72.50
2018-04-27T22:26:07.173Z,72.50
2018-04-27T22:28:36.055Z,72.30
2018-04-27T22:31:03.523Z,72.60
2018-04-27T22:33:49.665Z,72.50
2018-04-27T22:36:46.569Z,72.60
2018-04-27T22:39:18.639Z,72.80
2018-04-27T22:42:07.912Z,73.00
2018-04-27T22:47:33.321Z,73.00
2018-04-27T22:50:02.560Z,73.30
2018-04-27T22:52:40.233Z,73.30
2018-04-27T22:55:09.532Z,73.20
2018-04-27T22:57:53.477Z,73.50
2018-04-27T23:00:20.928Z,73.80
2018-04-27T23:02:51.232Z,73.50
2018-04-27T23:05:32.602Z,73.80
2018-04-27T23:08:15.044Z,73.70
2018-04-27T23:10:48.336Z,73.80
2018-04-27T23:16:11.019Z,73.80
2018-04-27T23:18:39.196Z,74.00
2018-04-27T23:21:06.667Z,74.00
2018-04-27T23:23:34.894Z,74.00
2018-04-27T23:26:02.381Z,73.90
2018-04-27T23:28:29.841Z,74.00
2018-04-27T23:30:58.148Z,74.20
2018-04-27T23:33:26.392Z,74.50
2018-04-27T23:35:54.652Z,74.40
2018-04-27T23:38:22.945Z,74.20
2018-04-27T23:40:53.196Z,74.00
2018-04-27T23:43:22.361Z,74.00
2018-04-27T23:45:49.929Z,73.80
2018-04-27T23:48:17.485Z,73.60
2018-04-27T23:50:59.896Z,73.70
2018-04-27T23:53:28.400Z,73.90
2018-04-27T23:55:56.633Z,73.70
2018-04-27T23:58:26.586Z,73.70
